Airfield :
LOGIN :

Register | Disclaimer

   EN    FR    IT 

 










Legend :    VFR   Marginal VFR   IFR   Intensive IFR   Very Intensive IFR
Visi :
Ceiling :
>= 8 km
>= 3000ft
5 to 8 km
1000 to 3000 ft
1500m to 5 km
500 to 1000 ft
800 to 1500m
200 to 500 ft
< 800m
< 200 ft
Symbols :   Thunderstorms  Fog  Heavy snow  Heavy precipitations  Wind > 20 kt
SIGMETs :     Misc.  Thunderstorms  Icing  Turbulence  Mountain Waves  Volcanic Ashes






- Airport Elevation : 1234 ft
- IATA code : LUX


ELLX - Luxembourg Findel

CURRENT METAR :
  • 150720Z 28007KT 9999 -RA FEW008 SCT067 BKN099 13/12 Q1007 NOSIG

EXPIRED METARs :
  • 150650Z 27007KT 9999 FEW026 SCT040 BKN099 13/11 Q1007 NOSIG
  • 150620Z 26010KT 9999 -RA FEW025 SCT039 BKN099 13/11 Q1007 NOSIG
  • 150550Z 26008KT 9999 -RA SCT035 BKN099 14/12 Q1007 NOSIG
  • 150520Z 26007KT 9999 FEW028 SCT040 14/12 Q1007 NOSIG
  • 150450Z 26009KT CAVOK 13/11 Q1007 NOSIG

TAF TAF ELLX
Valid from the 15 at 06:00 until the 16 at 12:00 UTC


150500Z 1506/1612 17009KT CAVOK
TEMPO 1510/1517 3000 RA BKN007
PROB40 1514/1516 TSRA BKN007CB
PROB40
TEMPO 1603/1609 3000 BR BKN005
ATIS : +352 4798 27300
Met : +352 4798 27010 / 27050



MET'MAP, your aeronautical weather chart ! - Copyright ORBIFLY December 2007 - Disclaimer

ORBIFLY MET'MAP TEAM :

Programming & Development : Alexandra Zaïnal
Concept & Development : Baudouin d'Aumeries
Co-Development & Prog : Marc-Olivier Méhu
Technical & hardware support : Manuel Goepfert

Contact : metmap@orbifly.com




SOURCES & CREDITS :

   NOAA